Time;durP1;ratioP1;P1;durP2;ratioP2;P2;SDS_P1;SDS_P2;PMS_P1;PMS_P2;Temp;Humidity;BMP_temperature;BMP_pressure;BME280_temperature;BME280_humidity;BME280_pressure;Samples;Min_cycle;Max_cycle;Signal;HPM_P1;HPM_P2
2022/06/27 00:00:31;;;;;;;10.15;2.67;;;;;;;;;;5034585;28;20036;-76
2022/06/27 00:02:57;;;;;;;8.20;3.00;;;;;;;;;;5048358;28;20029;-76
2022/06/27 00:05:23;;;;;;;4.63;2.83;;;;;;;;;;5054077;28;20029;-76
2022/06/27 00:07:49;;;;;;;5.57;2.92;;;;;;;;;;5053981;28;20066;-76
2022/06/27 00:10:15;;;;;;;6.32;3.20;;;;;;;;;;5054226;28;20104;-76
2022/06/27 00:12:41;;;;;;;7.03;2.70;;;;;;;;;;5054145;28;20099;-76
2022/06/27 00:15:08;;;;;;;6.45;3.22;;;;;;;;;;5039479;28;20448;-76
2022/06/27 00:17:35;;;;;;;5.30;2.88;;;;;;;;;;5034164;28;20080;-76
2022/06/27 00:20:01;;;;;;;8.73;3.70;;;;;;;;;;5033909;28;20100;-76
2022/06/27 00:22:27;;;;;;;7.82;3.30;;;;;;;;;;5034033;28;20107;-76
2022/06/27 00:24:53;;;;;;;10.00;3.60;;;;;;;;;;5033839;28;20029;-76
2022/06/27 00:27:19;;;;;;;5.43;3.45;;;;;;;;;;5044962;28;20398;-76
2022/06/27 00:29:46;;;;;;;5.68;3.17;;;;;;;;;;5053510;28;20430;-76
2022/06/27 00:32:12;;;;;;;6.07;3.40;;;;;;;;;;5053691;28;20017;-76
2022/06/27 00:34:38;;;;;;;7.15;3.78;;;;;;;;;;5053512;28;20064;-76
2022/06/27 00:37:04;;;;;;;10.70;3.30;;;;;;;;;;5053686;28;20028;-76
2022/06/27 00:39:32;;;;;;;7.75;3.60;;;;;;;;;;5053448;28;20029;-76
2022/06/27 00:41:58;;;;;;;6.72;4.32;;;;;;;;;;5053769;28;20104;-76
2022/06/27 00:44:33;;;;;;;7.70;4.03;;;;;;;;;;5053126;28;20108;-76
2022/06/27 00:47:00;;;;;;;5.50;4.13;;;;;;;;;;5053546;28;20052;-76
2022/06/27 00:49:26;;;;;;;6.97;4.10;;;;;;;;;;5053112;28;20029;-76
2022/06/27 00:51:52;;;;;;;7.32;4.15;;;;;;;;;;5053211;28;20036;-76
2022/06/27 00:54:18;;;;;;;6.07;3.70;;;;;;;;;;5053285;28;20057;-76
2022/06/27 00:56:44;;;;;;;7.00;3.63;;;;;;;;;;5053209;28;20364;-75
2022/06/27 00:59:10;;;;;;;6.85;3.50;;;;;;;;;;5052999;28;20044;-76
2022/06/27 01:01:36;;;;;;;6.07;3.60;;;;;;;;;;5053080;28;20021;-76
2022/06/27 01:04:02;;;;;;;9.68;3.97;;;;;;;;;;5053047;28;20072;-76
2022/06/27 01:06:29;;;;;;;7.85;2.92;;;;;;;;;;5052994;28;20483;-76
2022/06/27 01:08:55;;;;;;;5.63;3.20;;;;;;;;;;5053087;28;20498;-76
2022/06/27 01:11:21;;;;;;;7.18;3.30;;;;;;;;;;5052759;28;20418;-76
2022/06/27 01:13:47;;;;;;;5.40;3.10;;;;;;;;;;5049607;28;20052;-76
2022/06/27 01:16:13;;;;;;;6.47;4.05;;;;;;;;;;5032894;28;20112;-76
2022/06/27 01:18:40;;;;;;;4.63;3.42;;;;;;;;;;5032265;28;20056;-76
2022/06/27 01:21:07;;;;;;;8.48;3.78;;;;;;;;;;5032307;28;20026;-76
2022/06/27 01:23:36;;;;;;;7.10;3.50;;;;;;;;;;5032866;28;20018;-76
2022/06/27 01:26:02;;;;;;;8.85;3.85;;;;;;;;;;5033257;28;20068;-76
2022/06/27 01:28:28;;;;;;;7.07;3.90;;;;;;;;;;5052476;28;20108;-76
2022/06/27 01:30:54;;;;;;;11.05;4.35;;;;;;;;;;5052486;28;20037;-76
2022/06/27 01:33:20;;;;;;;7.43;4.18;;;;;;;;;;5052541;28;20032;-76
2022/06/27 01:35:46;;;;;;;5.97;3.65;;;;;;;;;;5052470;28;20025;-76
2022/06/27 01:38:12;;;;;;;6.60;3.80;;;;;;;;;;5052386;28;20355;-76
2022/06/27 01:40:40;;;;;;;5.65;3.60;;;;;;;;;;5052304;28;20029;-76
2022/06/27 01:43:06;;;;;;;5.75;3.85;;;;;;;;;;5052505;28;20026;-76
2022/06/27 01:45:33;;;;;;;6.35;3.97;;;;;;;;;;5052199;28;20091;-76
2022/06/27 01:47:59;;;;;;;12.18;3.63;;;;;;;;;;5052238;28;20159;-76
2022/06/27 01:50:26;;;;;;;18.05;5.43;;;;;;;;;;5051970;28;20082;-76
2022/06/27 01:52:52;;;;;;;4.90;3.60;;;;;;;;;;5051966;28;20044;-76
2022/06/27 01:55:19;;;;;;;7.70;4.00;;;;;;;;;;5051935;28;20060;-76
2022/06/27 01:57:49;;;;;;;8.50;3.83;;;;;;;;;;5051256;28;20098;-76
2022/06/27 02:00:15;;;;;;;7.50;3.70;;;;;;;;;;5051100;28;20017;-76
2022/06/27 02:02:42;;;;;;;8.63;3.80;;;;;;;;;;5050930;28;20021;-76
2022/06/27 02:05:08;;;;;;;6.13;3.65;;;;;;;;;;5051205;28;20033;-76
2022/06/27 02:07:36;;;;;;;8.35;3.50;;;;;;;;;;5051413;28;20033;-76
2022/06/27 02:10:03;;;;;;;7.07;3.85;;;;;;;;;;5051348;28;20107;-76
2022/06/27 02:12:30;;;;;;;4.90;3.60;;;;;;;;;;5051309;28;20059;-76
2022/06/27 02:14:56;;;;;;;7.72;3.85;;;;;;;;;;5038325;28;20087;-76
2022/06/27 02:17:22;;;;;;;8.63;3.97;;;;;;;;;;5031189;28;20336;-76
2022/06/27 02:19:49;;;;;;;6.32;3.95;;;;;;;;;;5031284;28;20032;-76
2022/06/27 02:22:15;;;;;;;9.57;4.10;;;;;;;;;;5030958;28;20041;-76
2022/06/27 02:24:42;;;;;;;10.38;4.05;;;;;;;;;;5031375;28;20041;-76
2022/06/27 02:27:08;;;;;;;7.13;4.28;;;;;;;;;;5040840;28;20020;-76
2022/06/27 02:29:35;;;;;;;10.57;4.13;;;;;;;;;;5050940;28;20051;-76
2022/06/27 02:32:01;;;;;;;7.53;3.58;;;;;;;;;;5049698;28;20023;-76
2022/06/27 02:34:28;;;;;;;6.35;3.75;;;;;;;;;;5050667;28;20029;-76
2022/06/27 02:36:56;;;;;;;6.97;3.90;;;;;;;;;;5050805;28;20021;-76
2022/06/27 02:39:26;;;;;;;6.97;4.20;;;;;;;;;;5050722;28;20078;-76
2022/06/27 02:41:56;;;;;;;7.93;4.30;;;;;;;;;;5050750;28;20438;-76
2022/06/27 02:44:22;;;;;;;9.73;4.22;;;;;;;;;;5048891;28;20025;-76
2022/06/27 02:46:51;;;;;;;7.07;4.20;;;;;;;;;;5030963;28;20018;-76
2022/06/27 02:49:17;;;;;;;9.10;4.90;;;;;;;;;;5030539;28;20028;-76
2022/06/27 02:52:02;;;;;;;9.45;4.60;;;;;;;;;;5030866;28;20035;-76
2022/06/27 02:54:35;;;;;;;8.43;4.38;;;;;;;;;;5030663;28;20104;-76
2022/06/27 02:57:03;;;;;;;9.02;4.43;;;;;;;;;;5006433;28;1197264;-76
2022/06/27 02:59:34;;;;;;;6.10;4.07;;;;;;;;;;5051395;28;20090;-76
2022/06/27 03:02:00;;;;;;;7.40;3.90;;;;;;;;;;5051603;28;20024;-76
2022/06/27 03:04:26;;;;;;;10.85;3.85;;;;;;;;;;5051717;28;20036;-76
2022/06/27 03:06:52;;;;;;;7.38;4.20;;;;;;;;;;5051434;28;20075;-76
2022/06/27 03:09:18;;;;;;;7.05;4.00;;;;;;;;;;5051145;28;20057;-76
2022/06/27 03:11:50;;;;;;;6.45;3.97;;;;;;;;;;5051129;28;20036;-76
2022/06/27 03:14:16;;;;;;;8.77;4.00;;;;;;;;;;5050910;28;20028;-76
2022/06/27 03:16:43;;;;;;;9.30;3.78;;;;;;;;;;5051334;28;20413;-76
2022/06/27 03:19:09;;;;;;;9.63;3.75;;;;;;;;;;5051256;28;20129;-76
2022/06/27 03:21:35;;;;;;;7.55;4.07;;;;;;;;;;5051109;28;20028;-76
2022/06/27 03:24:01;;;;;;;7.82;3.60;;;;;;;;;;5051042;28;20017;-76
2022/06/27 03:26:27;;;;;;;7.57;3.50;;;;;;;;;;5051104;28;20021;-76
2022/06/27 03:28:53;;;;;;;7.00;3.65;;;;;;;;;;5050886;28;20441;-76
2022/06/27 03:31:19;;;;;;;7.00;3.60;;;;;;;;;;5051092;28;20029;-76
2022/06/27 03:33:46;;;;;;;9.60;3.28;;;;;;;;;;5050881;28;20021;-76
2022/06/27 03:36:11;;;;;;;6.47;4.00;;;;;;;;;;5050877;28;20036;-76
2022/06/27 03:38:38;;;;;;;5.65;3.63;;;;;;;;;;5050982;28;20017;-76
2022/06/27 03:41:04;;;;;;;4.18;3.20;;;;;;;;;;5051050;28;20461;-76
2022/06/27 03:43:30;;;;;;;5.65;3.42;;;;;;;;;;5053061;28;20021;-76
2022/06/27 03:45:56;;;;;;;12.77;3.72;;;;;;;;;;5039682;28;20079;-76
2022/06/27 03:51:07;;;;;;;5.90;3.63;;;;;;;;;;5034877;28;20041;-76
2022/06/27 03:53:33;;;;;;;9.57;3.58;;;;;;;;;;5034593;28;20025;-76
2022/06/27 03:55:59;;;;;;;11.27;3.67;;;;;;;;;;5042709;28;20028;-76
2022/06/27 03:58:25;;;;;;;7.88;3.88;;;;;;;;;;5054482;28;20017;-76
2022/06/27 04:00:51;;;;;;;5.20;3.50;;;;;;;;;;5054525;28;20443;-76
2022/06/27 04:03:17;;;;;;;9.57;3.80;;;;;;;;;;5054073;28;20040;-76
2022/06/27 04:05:43;;;;;;;7.80;4.05;;;;;;;;;;5054138;28;20040;-76
2022/06/27 04:08:09;;;;;;;7.60;4.22;;;;;;;;;;5054264;28;20096;-76
2022/06/27 04:10:35;;;;;;;8.25;4.38;;;;;;;;;;5054154;28;20029;-76
2022/06/27 04:13:01;;;;;;;8.38;4.72;;;;;;;;;;5054238;28;20064;-76
2022/06/27 04:15:27;;;;;;;7.97;3.92;;;;;;;;;;5036923;28;20044;-76
2022/06/27 04:17:53;;;;;;;6.80;4.22;;;;;;;;;;5034031;28;20017;-76
2022/06/27 04:20:19;;;;;;;8.98;4.75;;;;;;;;;;5034162;28;20040;-76
2022/06/27 04:22:45;;;;;;;6.75;4.22;;;;;;;;;;5034000;28;20026;-76
2022/06/27 04:25:11;;;;;;;9.02;4.40;;;;;;;;;;5034096;28;20061;-76
2022/06/27 04:27:37;;;;;;;12.10;4.45;;;;;;;;;;5048155;28;20387;-76
2022/06/27 04:30:04;;;;;;;7.70;4.40;;;;;;;;;;5054205;28;20040;-76
2022/06/27 04:32:30;;;;;;;6.93;4.20;;;;;;;;;;5054076;28;20025;-76
2022/06/27 04:34:56;;;;;;;5.70;3.97;;;;;;;;;;5053857;28;20039;-76
2022/06/27 04:37:22;;;;;;;8.10;3.97;;;;;;;;;;5052598;28;20387;-76
2022/06/27 04:39:49;;;;;;;9.13;4.35;;;;;;;;;;5054019;28;20021;-76
2022/06/27 04:42:15;;;;;;;8.20;3.90;;;;;;;;;;5053626;28;20025;-76
2022/06/27 04:44:42;;;;;;;7.13;3.95;;;;;;;;;;5053457;28;20021;-76
2022/06/27 04:47:09;;;;;;;8.80;3.70;;;;;;;;;;5053351;28;20029;-75
2022/06/27 04:49:38;;;;;;;7.10;3.72;;;;;;;;;;5053134;28;20487;-76
2022/06/27 04:52:08;;;;;;;9.35;3.85;;;;;;;;;;5053140;28;20043;-76
2022/06/27 04:54:35;;;;;;;9.65;3.75;;;;;;;;;;5051717;28;20526;-76
2022/06/27 04:57:03;;;;;;;11.35;3.72;;;;;;;;;;5052724;28;20152;-76
2022/06/27 04:59:29;;;;;;;7.05;4.10;;;;;;;;;;5052717;28;20028;-76
2022/06/27 05:01:55;;;;;;;6.50;3.90;;;;;;;;;;5052740;28;20025;-76
2022/06/27 05:04:21;;;;;;;5.38;3.50;;;;;;;;;;5052962;28;20029;-76
2022/06/27 05:06:48;;;;;;;10.15;4.30;;;;;;;;;;5052712;28;20582;-76
2022/06/27 05:09:15;;;;;;;6.72;3.90;;;;;;;;;;5052710;28;20024;-76
2022/06/27 05:11:41;;;;;;;6.05;4.13;;;;;;;;;;5052702;28;20015;-76
2022/06/27 05:14:08;;;;;;;7.63;4.13;;;;;;;;;;5052354;28;20447;-76
2022/06/27 05:16:34;;;;;;;6.18;3.90;;;;;;;;;;5052598;28;20099;-76
2022/06/27 05:19:00;;;;;;;12.93;4.22;;;;;;;;;;5052467;28;20529;-75
2022/06/27 05:21:27;;;;;;;8.20;3.85;;;;;;;;;;5052454;28;20028;-76
2022/06/27 05:23:53;;;;;;;12.82;3.90;;;;;;;;;;5052127;28;20380;-76
2022/06/27 05:26:19;;;;;;;8.65;4.38;;;;;;;;;;5052205;28;20021;-76
2022/06/27 05:28:45;;;;;;;6.72;4.32;;;;;;;;;;5052102;28;20116;-75
2022/06/27 05:31:11;;;;;;;7.88;3.90;;;;;;;;;;5051989;28;20040;-76
2022/06/27 05:33:38;;;;;;;7.75;4.45;;;;;;;;;;5052429;28;20099;-76
2022/06/27 05:36:05;;;;;;;11.55;4.03;;;;;;;;;;5051847;28;20028;-76
2022/06/27 05:38:31;;;;;;;7.72;4.55;;;;;;;;;;5052118;28;20020;-75
2022/06/27 05:40:57;;;;;;;12.55;4.75;;;;;;;;;;5052030;28;20055;-76
2022/06/27 05:43:24;;;;;;;7.93;4.82;;;;;;;;;;5052077;28;20050;-75
2022/06/27 05:45:50;;;;;;;6.40;4.88;;;;;;;;;;5051846;28;20497;-76
2022/06/27 05:48:18;;;;;;;10.00;4.90;;;;;;;;;;5052199;28;20025;-75
2022/06/27 05:50:44;;;;;;;8.85;4.70;;;;;;;;;;5051664;28;20379;-77
2022/06/27 05:53:10;;;;;;;7.50;4.90;;;;;;;;;;5050475;28;20407;-76
2022/06/27 05:55:38;;;;;;;6.55;4.90;;;;;;;;;;5051349;28;20055;-76
2022/06/27 05:58:07;;;;;;;12.85;5.30;;;;;;;;;;5051398;28;20429;-76
2022/06/27 06:00:33;;;;;;;12.32;5.60;;;;;;;;;;5051874;28;20040;-76
2022/06/27 06:02:59;;;;;;;9.48;5.53;;;;;;;;;;5052112;28;20028;-76
2022/06/27 06:05:26;;;;;;;9.35;5.82;;;;;;;;;;5051590;28;20033;-78
2022/06/27 06:07:53;;;;;;;10.63;6.15;;;;;;;;;;5052075;28;20025;-77
2022/06/27 06:10:21;;;;;;;9.85;5.40;;;;;;;;;;5051931;28;20033;-77
2022/06/27 06:12:49;;;;;;;13.02;6.40;;;;;;;;;;5051333;28;20025;-77
2022/06/27 06:15:15;;;;;;;15.27;6.80;;;;;;;;;;5050052;28;20036;-77
2022/06/27 06:17:42;;;;;;;12.38;6.97;;;;;;;;;;5051871;28;20074;-77
2022/06/27 06:20:08;;;;;;;20.10;7.20;;;;;;;;;;5051382;28;20070;-77
2022/06/27 06:22:35;;;;;;;12.68;7.15;;;;;;;;;;5051535;28;20036;-78
2022/06/27 06:25:02;;;;;;;13.32;7.05;;;;;;;;;;5050141;28;20033;-76
2022/06/27 06:27:29;;;;;;;35.00;7.32;;;;;;;;;;5047066;28;20032;-77
2022/06/27 06:29:56;;;;;;;16.65;7.25;;;;;;;;;;5051733;28;20055;-76
2022/06/27 06:32:23;;;;;;;11.68;6.75;;;;;;;;;;5053203;28;20144;-77
2022/06/27 06:34:49;;;;;;;12.20;7.18;;;;;;;;;;5052180;28;20107;-76
2022/06/27 06:37:16;;;;;;;11.52;6.93;;;;;;;;;;5050699;28;20056;-76
2022/06/27 06:39:42;;;;;;;15.40;7.95;;;;;;;;;;5050875;28;20355;-78
2022/06/27 06:42:09;;;;;;;14.45;7.38;;;;;;;;;;5038640;28;20099;-78
2022/06/27 06:44:35;;;;;;;12.18;6.80;;;;;;;;;;5064995;28;20391;-79
2022/06/27 06:47:01;;;;;;;11.05;7.35;;;;;;;;;;5057010;28;20052;-77
2022/06/27 06:49:27;;;;;;;17.88;7.72;;;;;;;;;;5055818;28;20024;-78
2022/06/27 06:51:53;;;;;;;11.77;6.57;;;;;;;;;;5054003;28;20041;-78
2022/06/27 06:54:26;;;;;;;11.27;6.88;;;;;;;;;;5055877;28;20032;-78
2022/06/27 06:56:57;;;;;;;;;;;;;;;;;;5052832;28;20065;-77
2022/06/27 06:59:23;;;;;;;13.00;6.75;;;;;;;;;;5043363;28;19936;-78
2022/06/27 07:01:50;;;;;;;11.90;6.53;;;;;;;;;;5051162;28;20036;-81
2022/06/27 07:04:16;;;;;;;12.85;6.60;;;;;;;;;;5055098;28;20025;-78
2022/06/27 07:06:43;;;;;;;12.05;6.95;;;;;;;;;;5053061;28;20037;-77
2022/06/27 07:09:09;;;;;;;15.00;7.32;;;;;;;;;;5048847;28;20113;-77
2022/06/27 07:11:40;;;;;;;12.88;7.03;;;;;;;;;;5051625;28;20017;-78
2022/06/27 07:14:06;;;;;;;11.18;6.60;;;;;;;;;;5048934;28;20398;-77
2022/06/27 07:16:32;;;;;;;15.18;6.53;;;;;;;;;;5049576;28;20036;-77
2022/06/27 07:19:03;;;;;;;11.50;6.68;;;;;;;;;;5050797;28;20013;-78
2022/06/27 07:21:31;;;;;;;14.95;7.30;;;;;;;;;;5056887;28;20101;-77
2022/06/27 07:23:57;;;;;;;16.55;6.35;;;;;;;;;;5055810;28;20009;-78
2022/06/27 07:26:25;;;;;;;15.95;6.50;;;;;;;;;;5062707;28;20379;-77
2022/06/27 07:28:51;;;;;;;19.55;6.90;;;;;;;;;;5052605;28;20420;-78
2022/06/27 07:31:18;;;;;;;11.10;6.13;;;;;;;;;;5056902;28;20226;-78
2022/06/27 07:33:46;;;;;;;17.02;7.30;;;;;;;;;;5056695;28;20025;-79
2022/06/27 07:36:15;;;;;;;14.23;6.35;;;;;;;;;;5064965;28;20085;-79
2022/06/27 07:38:44;;;;;;;11.25;6.50;;;;;;;;;;5050472;28;20029;-79
2022/06/27 07:41:10;;;;;;;13.07;6.50;;;;;;;;;;5052693;28;20025;-79
2022/06/27 07:43:37;;;;;;;10.93;6.32;;;;;;;;;;5052147;28;20384;-78
2022/06/27 07:46:03;;;;;;;12.50;6.65;;;;;;;;;;5064034;28;20475;-78
2022/06/27 07:48:30;;;;;;;9.55;6.85;;;;;;;;;;5065030;28;20025;-79
2022/06/27 07:50:56;;;;;;;12.65;6.75;;;;;;;;;;5041268;28;20047;-77
2022/06/27 07:53:23;;;;;;;13.63;7.78;;;;;;;;;;5058974;28;20040;-79
2022/06/27 07:55:51;;;;;;;13.95;7.30;;;;;;;;;;5052567;28;20025;-80
2022/06/27 07:58:19;;;;;;;13.48;7.22;;;;;;;;;;5059407;28;20025;-80
2022/06/27 08:00:46;;;;;;;12.45;7.30;;;;;;;;;;5056884;28;20104;-73
2022/06/27 08:05:58;;;;;;;11.38;7.10;;;;;;;;;;5061490;28;20052;-76
2022/06/27 08:08:25;;;;;;;15.88;7.57;;;;;;;;;;5056763;28;20034;-76
2022/06/27 08:10:51;;;;;;;12.30;6.32;;;;;;;;;;5059507;28;20025;-74
2022/06/27 08:13:17;;;;;;;14.30;8.32;;;;;;;;;;5054281;28;20028;-74
2022/06/27 08:15:47;;;;;;;12.57;6.75;;;;;;;;;;5058992;28;20108;-76
2022/06/27 08:18:13;;;;;;;15.02;7.40;;;;;;;;;;5061134;28;20108;-74
2022/06/27 08:20:40;;;;;;;13.63;6.93;;;;;;;;;;5053082;28;20029;-75
2022/06/27 08:23:07;;;;;;;14.60;7.35;;;;;;;;;;5051432;28;20025;-73
2022/06/27 08:25:34;;;;;;;13.52;7.13;;;;;;;;;;5061038;28;20062;-74
2022/06/27 08:28:00;;;;;;;13.38;7.32;;;;;;;;;;5064966;28;20039;-75
2022/06/27 08:30:27;;;;;;;9.90;7.03;;;;;;;;;;5057884;28;20032;-77
2022/06/27 08:32:56;;;;;;;11.40;6.68;;;;;;;;;;5055304;28;20345;-74
2022/06/27 08:35:23;;;;;;;12.25;6.82;;;;;;;;;;5052612;28;20036;-74
2022/06/27 08:37:50;;;;;;;14.00;6.80;;;;;;;;;;5060284;28;20021;-77
2022/06/27 08:40:17;;;;;;;11.25;6.78;;;;;;;;;;5053887;28;20031;-75
2022/06/27 08:42:44;;;;;;;11.15;6.10;;;;;;;;;;5055631;28;20096;-75
2022/06/27 08:45:11;;;;;;;9.75;6.00;;;;;;;;;;5054866;28;20031;-76
2022/06/27 08:47:38;;;;;;;11.23;6.20;;;;;;;;;;5052302;28;20543;-75
2022/06/27 08:50:06;;;;;;;13.18;6.75;;;;;;;;;;5056829;28;20033;-75
2022/06/27 08:52:34;;;;;;;10.07;6.15;;;;;;;;;;5053174;28;20418;-75
2022/06/27 08:55:02;;;;;;;10.30;6.35;;;;;;;;;;5055339;28;20082;-76
2022/06/27 08:57:28;;;;;;;11.85;5.80;;;;;;;;;;5058417;28;20040;-76
2022/06/27 08:59:54;;;;;;;12.00;6.13;;;;;;;;;;5060731;28;20033;-75
2022/06/27 09:02:23;;;;;;;10.55;6.40;;;;;;;;;;5057638;28;20028;-76
2022/06/27 09:04:59;;;;;;;10.77;6.05;;;;;;;;;;5060885;28;20082;-76
2022/06/27 09:07:46;;;;;;;12.70;6.32;;;;;;;;;;5061031;28;20423;-75
2022/06/27 09:10:26;;;;;;;10.07;5.53;;;;;;;;;;5054217;28;20032;-74
2022/06/27 09:13:00;;;;;;;9.60;6.13;;;;;;;;;;5068237;28;20029;-75
2022/06/27 09:15:28;;;;;;;9.85;6.10;;;;;;;;;;5051547;28;20087;-74
2022/06/27 09:18:05;;;;;;;11.25;5.88;;;;;;;;;;5050426;28;20434;-75
2022/06/27 09:20:52;;;;;;;11.48;6.20;;;;;;;;;;5051788;28;20434;-74
2022/06/27 09:23:50;;;;;;;12.88;6.78;;;;;;;;;;5040991;28;20482;-74
2022/06/27 09:26:20;;;;;;;8.35;5.68;;;;;;;;;;5038995;28;20033;-74
2022/06/27 09:28:53;;;;;;;12.18;5.93;;;;;;;;;;5051956;28;20483;-73
2022/06/27 09:31:28;;;;;;;9.43;5.88;;;;;;;;;;5050053;28;20166;-74
2022/06/27 09:34:09;;;;;;;10.13;6.28;;;;;;;;;;5049141;28;20032;-72
2022/06/27 09:37:03;;;;;;;9.57;5.85;;;;;;;;;;5051862;28;20021;-73
2022/06/27 09:39:33;;;;;;;13.50;5.93;;;;;;;;;;5048243;28;20036;-74
2022/06/27 09:42:01;;;;;;;10.00;5.55;;;;;;;;;;5051980;28;20029;-74
2022/06/27 09:44:32;;;;;;;11.93;5.85;;;;;;;;;;5051849;28;20031;-75
2022/06/27 09:47:19;;;;;;;9.10;5.90;;;;;;;;;;5052010;28;20024;-74
2022/06/27 09:49:47;;;;;;;9.68;5.63;;;;;;;;;;5050480;28;20463;-74
2022/06/27 09:52:14;;;;;;;10.95;5.80;;;;;;;;;;5050292;28;20387;-74
2022/06/27 09:54:41;;;;;;;17.55;6.63;;;;;;;;;;5051661;28;20025;-74
2022/06/27 09:57:08;;;;;;;14.48;6.53;;;;;;;;;;5051618;28;20714;-74
2022/06/27 09:59:35;;;;;;;11.68;6.13;;;;;;;;;;5051794;28;20105;-73
2022/06/27 10:02:01;;;;;;;9.20;5.30;;;;;;;;;;5051825;28;20017;-73
2022/06/27 10:04:29;;;;;;;11.43;5.40;;;;;;;;;;5052095;28;20072;-73
2022/06/27 10:06:57;;;;;;;11.00;5.80;;;;;;;;;;5050452;28;20037;-73
2022/06/27 10:09:26;;;;;;;8.43;5.40;;;;;;;;;;5051901;28;20387;-73
2022/06/27 10:12:10;;;;;;;11.07;5.75;;;;;;;;;;5051780;28;20021;-73
2022/06/27 10:14:36;;;;;;;10.05;6.03;;;;;;;;;;5041600;28;20025;-74
2022/06/27 10:17:05;;;;;;;10.25;5.45;;;;;;;;;;5049641;28;20187;-74
2022/06/27 10:19:31;;;;;;;7.68;5.47;;;;;;;;;;5050726;28;20633;-74
2022/06/27 10:21:57;;;;;;;11.60;5.72;;;;;;;;;;5048143;28;20029;-74
2022/06/27 10:24:24;;;;;;;10.68;6.03;;;;;;;;;;5050025;28;20104;-75
2022/06/27 10:26:57;;;;;;;11.57;5.57;;;;;;;;;;5048975;28;20027;-75
2022/06/27 10:29:45;;;;;;;11.95;5.70;;;;;;;;;;5050074;28;20047;-73
2022/06/27 10:32:31;;;;;;;10.80;5.72;;;;;;;;;;5049939;28;20025;-75
2022/06/27 10:34:57;;;;;;;12.82;5.28;;;;;;;;;;5039477;28;20025;-74
2022/06/27 10:37:26;;;;;;;8.93;5.38;;;;;;;;;;5049999;28;20009;-74
2022/06/27 10:39:52;;;;;;;11.95;5.78;;;;;;;;;;5050117;28;20036;-74
2022/06/27 10:42:37;;;;;;;12.52;5.75;;;;;;;;;;5050241;28;20048;-74
2022/06/27 10:45:27;;;;;;;10.65;6.18;;;;;;;;;;5049807;28;20025;-74
2022/06/27 10:47:53;;;;;;;10.20;5.95;;;;;;;;;;4984027;28;20174;-74
2022/06/27 10:50:20;;;;;;;17.70;7.07;;;;;;;;;;4984074;28;20045;-74
2022/06/27 10:52:46;;;;;;;10.32;6.47;;;;;;;;;;4985872;28;20045;-74
2022/06/27 10:55:25;;;;;;;11.43;6.80;;;;;;;;;;4986327;28;20118;-74
2022/06/27 10:57:52;;;;;;;13.00;6.10;;;;;;;;;;4982481;28;20046;-74
2022/06/27 11:00:37;;;;;;;9.63;6.00;;;;;;;;;;4983568;28;20105;-74
2022/06/27 11:03:04;;;;;;;12.27;6.18;;;;;;;;;;4982585;28;20030;-74
2022/06/27 11:05:32;;;;;;;10.95;6.32;;;;;;;;;;4983421;28;20043;-74
2022/06/27 11:07:58;;;;;;;11.60;6.38;;;;;;;;;;4981595;28;20189;-74
2022/06/27 11:10:24;;;;;;;12.75;6.57;;;;;;;;;;4982720;28;20497;-74
2022/06/27 11:12:50;;;;;;;12.48;6.68;;;;;;;;;;4983544;28;20045;-74
2022/06/27 11:15:17;;;;;;;9.85;6.25;;;;;;;;;;4983136;28;20205;-74
2022/06/27 11:17:44;;;;;;;9.93;5.47;;;;;;;;;;4987321;28;20085;-74
2022/06/27 11:20:11;;;;;;;8.82;5.38;;;;;;;;;;4983410;28;20034;-74
2022/06/27 11:22:37;;;;;;;14.85;6.13;;;;;;;;;;4980694;28;20425;-74
2022/06/27 11:25:04;;;;;;;10.40;5.82;;;;;;;;;;5021958;28;20098;-74
2022/06/27 11:27:49;;;;;;;10.18;5.55;;;;;;;;;;5054391;28;20387;-73
2022/06/27 11:33:18;;;;;;;9.85;5.68;;;;;;;;;;5054125;28;20489;-73
2022/06/27 11:35:45;;;;;;;9.40;5.30;;;;;;;;;;5054103;28;20060;-73
2022/06/27 11:38:11;;;;;;;10.50;4.90;;;;;;;;;;5054233;28;20031;-73
2022/06/27 11:40:37;;;;;;;9.05;5.13;;;;;;;;;;5053571;28;20663;-73
2022/06/27 11:43:03;;;;;;;14.00;5.07;;;;;;;;;;5053630;28;20040;-73
2022/06/27 11:45:40;;;;;;;9.75;4.78;;;;;;;;;;5053947;28;20364;-73
2022/06/27 11:48:12;;;;;;;12.77;4.03;;;;;;;;;;5053991;28;20406;-75
2022/06/27 11:50:38;;;;;;;12.80;3.60;;;;;;;;;;5053367;28;20360;-74
2022/06/27 11:53:04;;;;;;;8.43;3.53;;;;;;;;;;5053561;28;20124;-74
2022/06/27 11:55:31;;;;;;;10.85;3.90;;;;;;;;;;5051835;28;20139;-74
2022/06/27 11:57:58;;;;;;;10.00;3.33;;;;;;;;;;5052134;28;20068;-74
2022/06/27 12:00:26;;;;;;;7.07;3.38;;;;;;;;;;5053414;28;20063;-74
2022/06/27 12:03:12;;;;;;;9.98;3.95;;;;;;;;;;5052475;28;20036;-74
2022/06/27 12:05:39;;;;;;;7.60;3.47;;;;;;;;;;5050748;28;20078;-74
2022/06/27 12:08:12;;;;;;;6.47;3.30;;;;;;;;;;5052472;28;20051;-74
2022/06/27 12:11:17;;;;;;;7.65;2.85;;;;;;;;;;5051052;28;20025;-74
2022/06/27 12:13:36;;;;;;;8.98;3.10;;;;;;;;;;5049785;28;20036;-74
2022/06/27 12:16:03;;;;;;;6.35;2.90;;;;;;;;;;5051995;28;20025;-74
2022/06/27 12:18:33;;;;;;;10.63;3.75;;;;;;;;;;5052607;28;20027;-72
2022/06/27 12:20:59;;;;;;;8.77;3.15;;;;;;;;;;5052548;28;20029;-74
2022/06/27 12:23:25;;;;;;;8.20;2.97;;;;;;;;;;5052164;28;20025;-74
2022/06/27 12:25:51;;;;;;;6.93;3.08;;;;;;;;;;5052496;28;20054;-74
2022/06/27 12:28:17;;;;;;;5.97;2.90;;;;;;;;;;5052586;28;20090;-72
2022/06/27 12:30:43;;;;;;;9.30;3.40;;;;;;;;;;5052259;28;20024;-72
2022/06/27 12:33:09;;;;;;;11.25;3.65;;;;;;;;;;5052281;28;20029;-72
2022/06/27 12:35:35;;;;;;;6.03;3.30;;;;;;;;;;5052422;28;20029;-72
2022/06/27 12:38:02;;;;;;;4.90;2.85;;;;;;;;;;5052118;28;20029;-72
2022/06/27 12:40:31;;;;;;;8.30;3.30;;;;;;;;;;5053008;28;20021;-72
2022/06/27 12:42:57;;;;;;;7.55;3.55;;;;;;;;;;5052683;28;20032;-75
2022/06/27 12:45:23;;;;;;;11.80;2.95;;;;;;;;;;5053119;28;20391;-74
2022/06/27 12:47:49;;;;;;;11.68;3.72;;;;;;;;;;5051782;28;20426;-76
2022/06/27 12:50:18;;;;;;;9.73;4.82;;;;;;;;;;5053091;28;20033;-76
2022/06/27 12:52:45;;;;;;;11.65;5.00;;;;;;;;;;5053500;28;20024;-74
2022/06/27 12:55:11;;;;;;;11.82;6.40;;;;;;;;;;5050667;28;20033;-76
2022/06/27 12:57:37;;;;;;;14.70;6.30;;;;;;;;;;5051947;28;20041;-74
2022/06/27 13:00:04;;;;;;;17.58;6.82;;;;;;;;;;5052683;28;20042;-74
2022/06/27 13:02:30;;;;;;;19.60;7.28;;;;;;;;;;5052479;28;20475;-75
2022/06/27 13:04:56;;;;;;;14.35;7.47;;;;;;;;;;5052837;28;20535;-75
2022/06/27 13:07:22;;;;;;;13.10;7.18;;;;;;;;;;5052391;28;20083;-75
2022/06/27 13:09:48;;;;;;;8.98;4.22;;;;;;;;;;5052366;28;20029;-74
2022/06/27 13:12:14;;;;;;;8.68;3.35;;;;;;;;;;5052461;28;20037;-74
2022/06/27 13:14:40;;;;;;;9.20;3.83;;;;;;;;;;5047243;28;20040;-75
2022/06/27 13:17:06;;;;;;;6.18;3.20;;;;;;;;;;5052042;28;20027;-74
2022/06/27 13:19:33;;;;;;;5.05;2.58;;;;;;;;;;5052185;28;20324;-74
2022/06/27 13:21:59;;;;;;;7.47;2.60;;;;;;;;;;5051935;28;20025;-74
2022/06/27 13:24:25;;;;;;;7.03;2.42;;;;;;;;;;5052407;28;20581;-74
2022/06/27 13:26:53;;;;;;;8.23;2.92;;;;;;;;;;5052053;28;20111;-74
2022/06/27 13:29:19;;;;;;;4.57;2.47;;;;;;;;;;5052228;28;20044;-74
2022/06/27 13:31:45;;;;;;;6.75;2.88;;;;;;;;;;5052140;28;20024;-74
2022/06/27 13:34:11;;;;;;;7.25;2.70;;;;;;;;;;5052247;28;20367;-74
2022/06/27 13:36:37;;;;;;;8.82;3.03;;;;;;;;;;5052221;28;20108;-75
2022/06/27 13:39:04;;;;;;;9.95;2.97;;;;;;;;;;5052417;28;20036;-74
2022/06/27 13:41:30;;;;;;;3.67;2.47;;;;;;;;;;5051980;28;20025;-74
2022/06/27 13:43:56;;;;;;;5.20;2.70;;;;;;;;;;5051969;28;20502;-74
2022/06/27 13:46:22;;;;;;;10.45;2.80;;;;;;;;;;5052182;28;20033;-74
2022/06/27 13:48:48;;;;;;;9.50;2.70;;;;;;;;;;5051942;28;20036;-73
2022/06/27 13:51:14;;;;;;;7.20;3.13;;;;;;;;;;5052146;28;20021;-74
2022/06/27 13:53:40;;;;;;;5.38;2.90;;;;;;;;;;5051549;28;20387;-74
2022/06/27 13:56:06;;;;;;;6.22;3.17;;;;;;;;;;5051731;28;20037;-73
2022/06/27 13:58:34;;;;;;;9.60;3.13;;;;;;;;;;5051975;28;20022;-73
2022/06/27 14:01:00;;;;;;;11.45;3.10;;;;;;;;;;5051242;28;20022;-73
2022/06/27 14:03:26;;;;;;;5.15;2.72;;;;;;;;;;5051806;28;20036;-74
2022/06/27 14:05:53;;;;;;;7.18;3.40;;;;;;;;;;5051744;28;20507;-73
2022/06/27 14:08:19;;;;;;;6.43;2.95;;;;;;;;;;5051373;28;20040;-73
2022/06/27 14:10:57;;;;;;;9.07;2.83;;;;;;;;;;5050748;28;20044;-73
2022/06/27 14:13:24;;;;;;;10.80;3.40;;;;;;;;;;5051304;28;20104;-73
2022/06/27 14:15:50;;;;;;;4.05;2.58;;;;;;;;;;5043621;28;20506;-71
2022/06/27 14:18:16;;;;;;;4.85;2.70;;;;;;;;;;5051255;28;20534;-74
2022/06/27 14:20:42;;;;;;;4.47;2.55;;;;;;;;;;5051119;28;20025;-73
2022/06/27 14:23:08;;;;;;;5.05;2.90;;;;;;;;;;5051435;28;20021;-72
2022/06/27 14:25:34;;;;;;;8.55;3.10;;;;;;;;;;5051179;28;20044;-73
2022/06/27 14:28:00;;;;;;;8.38;2.80;;;;;;;;;;5050557;28;20090;-73
2022/06/27 14:30:26;;;;;;;8.98;3.13;;;;;;;;;;5050468;28;20040;-72
2022/06/27 14:32:53;;;;;;;8.23;3.35;;;;;;;;;;5050047;28;20033;-73
2022/06/27 14:35:19;;;;;;;7.68;3.33;;;;;;;;;;5050482;28;21325;-72
2022/06/27 14:37:45;;;;;;;7.97;3.50;;;;;;;;;;5047189;28;20124;-72
2022/06/27 14:40:11;;;;;;;10.82;3.33;;;;;;;;;;5049938;28;20032;-72
2022/06/27 14:42:37;;;;;;;6.18;3.50;;;;;;;;;;5050375;28;20112;-73
2022/06/27 14:45:03;;;;;;;7.53;3.15;;;;;;;;;;5049586;28;20048;-73
2022/06/27 14:47:29;;;;;;;5.30;3.20;;;;;;;;;;5049931;28;20053;-72
2022/06/27 14:49:55;;;;;;;10.57;3.72;;;;;;;;;;5050025;28;20048;-73